SI-0014 weather

Andoljšek - Ribnica UL field
Ribnica, Slovenia

Public forecast

Using degrees Celsius for public forecast. Weather courtesy of forecast.io.

Closest aviation weather report (METAR) to Andoljšek - Ribnica UL field

Closest report is Ljubljana Jože Pučnik Airport, 30.7 nm (56.9 km) NNW. Retrieved 2020/08/08 11:30 UTC (7 minutes ago):

LJLJ 081130Z 11011KT 080V140 9999 FEW060 30/17 Q1020 NOSIG

Closest aviation forecast (TAF) to Andoljšek - Ribnica UL field

Closest forecast is Ljubljana Jože Pučnik Airport, 30.7 nm (56.9 km) NNW. Retrieved 2020/08/08 06:07 UTC (5 hours ago):

TAF LJLJ 080500Z 0806/0906 VRB02KT 9999 FEW060